sensor_id;sensor_type;location;lat;lon;timestamp;temperature;humidity
4356;DHT22;64374;51.482;7.408;2023-02-28T00:00:09;7.70;94.00
4356;DHT22;64374;51.482;7.408;2023-02-28T00:02:39;7.70;94.30
4356;DHT22;64374;51.482;7.408;2023-02-28T00:05:09;7.80;94.40
4356;DHT22;64374;51.482;7.408;2023-02-28T00:07:39;7.80;94.30
4356;DHT22;64374;51.482;7.408;2023-02-28T00:10:10;7.80;94.50
4356;DHT22;64374;51.482;7.408;2023-02-28T00:12:40;7.70;94.60
4356;DHT22;64374;51.482;7.408;2023-02-28T00:15:10;7.70;94.70
4356;DHT22;64374;51.482;7.408;2023-02-28T00:17:38;7.60;94.70
4356;DHT22;64374;51.482;7.408;2023-02-28T00:20:12;7.70;94.70
4356;DHT22;64374;51.482;7.408;2023-02-28T00:22:43;7.80;94.70
4356;DHT22;64374;51.482;7.408;2023-02-28T00:25:16;7.60;94.80
4356;DHT22;64374;51.482;7.408;2023-02-28T00:27:44;7.60;95.00
4356;DHT22;64374;51.482;7.408;2023-02-28T00:30:16;7.60;95.40
4356;DHT22;64374;51.482;7.408;2023-02-28T00:32:44;7.70;95.10
4356;DHT22;64374;51.482;7.408;2023-02-28T00:35:12;7.80;95.20
4356;DHT22;64374;51.482;7.408;2023-02-28T00:37:44;7.90;95.10
4356;DHT22;64374;51.482;7.408;2023-02-28T00:40:13;7.60;95.20
4356;DHT22;64374;51.482;7.408;2023-02-28T00:42:42;7.70;95.30
4356;DHT22;64374;51.482;7.408;2023-02-28T00:45:10;7.80;95.40
4356;DHT22;64374;51.482;7.408;2023-02-28T00:47:38;7.60;95.50
4356;DHT22;64374;51.482;7.408;2023-02-28T00:50:09;7.60;95.70
4356;DHT22;64374;51.482;7.408;2023-02-28T00:52:37;7.60;95.80
4356;DHT22;64374;51.482;7.408;2023-02-28T00:55:08;7.70;95.80
4356;DHT22;64374;51.482;7.408;2023-02-28T00:57:37;7.80;95.80
4356;DHT22;64374;51.482;7.408;2023-02-28T01:00:08;7.70;95.80
4356;DHT22;64374;51.482;7.408;2023-02-28T01:02:38;7.90;95.70
4356;DHT22;64374;51.482;7.408;2023-02-28T01:05:08;8.00;95.60
4356;DHT22;64374;51.482;7.408;2023-02-28T01:07:38;8.00;95.50
4356;DHT22;64374;51.482;7.408;2023-02-28T01:10:10;7.90;95.60
4356;DHT22;64374;51.482;7.408;2023-02-28T01:12:38;8.00;95.50
4356;DHT22;64374;51.482;7.408;2023-02-28T01:15:10;7.70;95.60
4356;DHT22;64374;51.482;7.408;2023-02-28T01:17:38;7.80;95.60
4356;DHT22;64374;51.482;7.408;2023-02-28T01:20:09;7.90;95.60
4356;DHT22;64374;51.482;7.408;2023-02-28T01:22:38;7.70;95.70
4356;DHT22;64374;51.482;7.408;2023-02-28T01:25:09;7.60;95.80
4356;DHT22;64374;51.482;7.408;2023-02-28T01:27:37;7.60;95.90
4356;DHT22;64374;51.482;7.408;2023-02-28T01:30:08;7.60;96.00
4356;DHT22;64374;51.482;7.408;2023-02-28T01:32:37;7.60;96.10
4356;DHT22;64374;51.482;7.408;2023-02-28T01:35:05;7.70;96.20
4356;DHT22;64374;51.482;7.408;2023-02-28T01:37:34;7.70;96.20
4356;DHT22;64374;51.482;7.408;2023-02-28T01:40:05;7.60;96.20
4356;DHT22;64374;51.482;7.408;2023-02-28T01:42:57;7.50;96.30
4356;DHT22;64374;51.482;7.408;2023-02-28T01:45:26;7.40;96.60
4356;DHT22;64374;51.482;7.408;2023-02-28T01:48:02;7.20;96.70
4356;DHT22;64374;51.482;7.408;2023-02-28T01:50:37;7.50;96.60
4356;DHT22;64374;51.482;7.408;2023-02-28T01:53:09;7.80;96.50
4356;DHT22;64374;51.482;7.408;2023-02-28T01:55:41;7.50;96.20
4356;DHT22;64374;51.482;7.408;2023-02-28T01:58:13;7.60;96.40
4356;DHT22;64374;51.482;7.408;2023-02-28T02:00:41;7.40;96.60
4356;DHT22;64374;51.482;7.408;2023-02-28T02:03:13;7.50;96.70
4356;DHT22;64374;51.482;7.408;2023-02-28T02:05:43;7.70;96.60
4356;DHT22;64374;51.482;7.408;2023-02-28T02:08:17;7.70;96.30
4356;DHT22;64374;51.482;7.408;2023-02-28T02:10:48;7.60;96.50
4356;DHT22;64374;51.482;7.408;2023-02-28T02:13:34;7.80;96.40
4356;DHT22;64374;51.482;7.408;2023-02-28T02:16:15;7.80;96.10
4356;DHT22;64374;51.482;7.408;2023-02-28T02:18:48;7.70;96.30
4356;DHT22;64374;51.482;7.408;2023-02-28T02:21:35;7.70;96.50
4356;DHT22;64374;51.482;7.408;2023-02-28T02:24:42;7.70;96.40
4356;DHT22;64374;51.482;7.408;2023-02-28T02:27:25;7.50;96.50
4356;DHT22;64374;51.482;7.408;2023-02-28T02:30:19;7.50;96.60
4356;DHT22;64374;51.482;7.408;2023-02-28T02:33:22;7.70;96.60
4356;DHT22;64374;51.482;7.408;2023-02-28T02:35:57;7.60;96.40
4356;DHT22;64374;51.482;7.408;2023-02-28T02:38:33;7.70;96.40
4356;DHT22;64374;51.482;7.408;2023-02-28T02:41:09;7.50;96.30
4356;DHT22;64374;51.482;7.408;2023-02-28T02:43:46;7.30;96.30
4356;DHT22;64374;51.482;7.408;2023-02-28T02:46:20;7.30;96.70
4356;DHT22;64374;51.482;7.408;2023-02-28T02:48:50;7.40;96.90
4356;DHT22;64374;51.482;7.408;2023-02-28T02:51:22;7.40;96.60
4356;DHT22;64374;51.482;7.408;2023-02-28T02:53:53;7.50;96.40
4356;DHT22;64374;51.482;7.408;2023-02-28T02:56:27;7.60;96.30
4356;DHT22;64374;51.482;7.408;2023-02-28T02:59:01;7.40;96.10
4356;DHT22;64374;51.482;7.408;2023-02-28T03:01:31;7.40;96.30
4356;DHT22;64374;51.482;7.408;2023-02-28T03:04:02;7.30;96.40
4356;DHT22;64374;51.482;7.408;2023-02-28T03:06:34;7.20;96.70
4356;DHT22;64374;51.482;7.408;2023-02-28T03:09:03;7.30;96.30
4356;DHT22;64374;51.482;7.408;2023-02-28T03:11:34;7.30;96.40
4356;DHT22;64374;51.482;7.408;2023-02-28T03:17:21;7.30;96.20
4356;DHT22;64374;51.482;7.408;2023-02-28T03:20:01;7.10;96.40
4356;DHT22;64374;51.482;7.408;2023-02-28T03:22:56;7.10;96.40
4356;DHT22;64374;51.482;7.408;2023-02-28T03:25:33;7.10;96.60
4356;DHT22;64374;51.482;7.408;2023-02-28T03:28:11;7.10;96.50
4356;DHT22;64374;51.482;7.408;2023-02-28T03:30:45;7.10;96.40
4356;DHT22;64374;51.482;7.408;2023-02-28T03:33:18;7.10;96.10
4356;DHT22;64374;51.482;7.408;2023-02-28T03:35:52;6.80;96.00
4356;DHT22;64374;51.482;7.408;2023-02-28T03:38:28;7.00;96.10
4356;DHT22;64374;51.482;7.408;2023-02-28T03:41:02;6.80;96.30
4356;DHT22;64374;51.482;7.408;2023-02-28T03:43:36;6.70;96.70
4356;DHT22;64374;51.482;7.408;2023-02-28T03:46:09;6.60;96.70
4356;DHT22;64374;51.482;7.408;2023-02-28T03:48:42;6.50;96.90
4356;DHT22;64374;51.482;7.408;2023-02-28T03:51:15;6.70;96.70
4356;DHT22;64374;51.482;7.408;2023-02-28T03:53:51;6.90;96.50
4356;DHT22;64374;51.482;7.408;2023-02-28T03:56:23;6.80;96.50
4356;DHT22;64374;51.482;7.408;2023-02-28T03:58:57;6.90;96.40
4356;DHT22;64374;51.482;7.408;2023-02-28T04:01:30;6.90;96.20
4356;DHT22;64374;51.482;7.408;2023-02-28T04:04:02;6.80;96.30
4356;DHT22;64374;51.482;7.408;2023-02-28T04:06:32;7.00;96.50
4356;DHT22;64374;51.482;7.408;2023-02-28T04:09:02;7.00;96.30
4356;DHT22;64374;51.482;7.408;2023-02-28T04:11:34;7.10;96.20
4356;DHT22;64374;51.482;7.408;2023-02-28T04:14:06;6.90;96.20
4356;DHT22;64374;51.482;7.408;2023-02-28T04:16:37;7.00;96.10
4356;DHT22;64374;51.482;7.408;2023-02-28T04:19:08;7.10;96.00
4356;DHT22;64374;51.482;7.408;2023-02-28T04:21:38;7.10;95.90
4356;DHT22;64374;51.482;7.408;2023-02-28T04:24:11;7.00;95.90
4356;DHT22;64374;51.482;7.408;2023-02-28T04:26:43;6.70;95.70
4356;DHT22;64374;51.482;7.408;2023-02-28T04:29:17;6.60;96.20
4356;DHT22;64374;51.482;7.408;2023-02-28T04:31:48;6.70;96.40
4356;DHT22;64374;51.482;7.408;2023-02-28T04:34:16;6.90;96.30
4356;DHT22;64374;51.482;7.408;2023-02-28T04:36:46;7.00;96.20
4356;DHT22;64374;51.482;7.408;2023-02-28T04:39:36;6.80;96.10
4356;DHT22;64374;51.482;7.408;2023-02-28T04:42:04;6.90;96.00
4356;DHT22;64374;51.482;7.408;2023-02-28T04:44:32;6.70;95.80
4356;DHT22;64374;51.482;7.408;2023-02-28T04:47:01;6.90;95.80
4356;DHT22;64374;51.482;7.408;2023-02-28T04:49:29;6.90;95.30
4356;DHT22;64374;51.482;7.408;2023-02-28T04:51:57;6.80;95.60
4356;DHT22;64374;51.482;7.408;2023-02-28T04:54:26;6.80;95.60
4356;DHT22;64374;51.482;7.408;2023-02-28T04:56:56;6.70;95.80
4356;DHT22;64374;51.482;7.408;2023-02-28T04:59:24;6.70;95.90
4356;DHT22;64374;51.482;7.408;2023-02-28T05:01:54;6.70;96.10
4356;DHT22;64374;51.482;7.408;2023-02-28T05:04:25;6.70;96.40
4356;DHT22;64374;51.482;7.408;2023-02-28T05:06:54;6.70;96.30
4356;DHT22;64374;51.482;7.408;2023-02-28T05:09:25;6.80;96.50
4356;DHT22;64374;51.482;7.408;2023-02-28T05:11:55;6.70;96.50
4356;DHT22;64374;51.482;7.408;2023-02-28T05:14:26;6.80;96.40
4356;DHT22;64374;51.482;7.408;2023-02-28T05:16:54;6.80;96.50
4356;DHT22;64374;51.482;7.408;2023-02-28T05:19:23;6.70;96.60
4356;DHT22;64374;51.482;7.408;2023-02-28T05:21:52;6.80;96.80
4356;DHT22;64374;51.482;7.408;2023-02-28T05:24:21;6.50;96.60
4356;DHT22;64374;51.482;7.408;2023-02-28T05:26:52;6.50;96.90
4356;DHT22;64374;51.482;7.408;2023-02-28T05:29:22;6.60;96.90
4356;DHT22;64374;51.482;7.408;2023-02-28T05:31:51;6.60;97.00
4356;DHT22;64374;51.482;7.408;2023-02-28T05:34:20;6.70;97.00
4356;DHT22;64374;51.482;7.408;2023-02-28T05:36:50;6.60;96.90
4356;DHT22;64374;51.482;7.408;2023-02-28T05:39:18;6.70;96.90
4356;DHT22;64374;51.482;7.408;2023-02-28T05:41:46;6.80;96.70
4356;DHT22;64374;51.482;7.408;2023-02-28T05:44:15;6.80;96.80
4356;DHT22;64374;51.482;7.408;2023-02-28T05:46:45;6.80;97.00
4356;DHT22;64374;51.482;7.408;2023-02-28T05:49:14;6.90;96.70
4356;DHT22;64374;51.482;7.408;2023-02-28T05:51:43;6.70;96.70
4356;DHT22;64374;51.482;7.408;2023-02-28T05:54:12;6.90;96.90
4356;DHT22;64374;51.482;7.408;2023-02-28T05:56:40;6.80;96.70
4356;DHT22;64374;51.482;7.408;2023-02-28T05:59:10;6.80;96.70
4356;DHT22;64374;51.482;7.408;2023-02-28T06:01:40;6.80;96.50
4356;DHT22;64374;51.482;7.408;2023-02-28T06:04:11;6.70;96.80
4356;DHT22;64374;51.482;7.408;2023-02-28T06:07:01;6.80;96.80
4356;DHT22;64374;51.482;7.408;2023-02-28T06:09:31;6.90;96.40
4356;DHT22;64374;51.482;7.408;2023-02-28T06:12:01;6.80;96.40
4356;DHT22;64374;51.482;7.408;2023-02-28T06:14:31;6.50;96.20
4356;DHT22;64374;51.482;7.408;2023-02-28T06:17:00;6.10;96.40
4356;DHT22;64374;51.482;7.408;2023-02-28T06:19:30;6.10;96.80
4356;DHT22;64374;51.482;7.408;2023-02-28T06:21:59;5.80;96.90
4356;DHT22;64374;51.482;7.408;2023-02-28T06:24:27;6.10;96.90
4356;DHT22;64374;51.482;7.408;2023-02-28T06:26:57;6.00;96.60
4356;DHT22;64374;51.482;7.408;2023-02-28T06:29:32;6.00;96.70
4356;DHT22;64374;51.482;7.408;2023-02-28T06:32:01;6.10;96.50
4356;DHT22;64374;51.482;7.408;2023-02-28T06:34:31;6.10;96.60
4356;DHT22;64374;51.482;7.408;2023-02-28T06:37:01;6.10;96.50
4356;DHT22;64374;51.482;7.408;2023-02-28T06:39:32;6.10;96.60
4356;DHT22;64374;51.482;7.408;2023-02-28T06:42:00;6.10;96.70
4356;DHT22;64374;51.482;7.408;2023-02-28T06:44:28;6.30;96.60
4356;DHT22;64374;51.482;7.408;2023-02-28T06:47:02;6.20;96.20
4356;DHT22;64374;51.482;7.408;2023-02-28T06:49:34;6.30;96.30
4356;DHT22;64374;51.482;7.408;2023-02-28T06:52:03;6.30;96.40
4356;DHT22;64374;51.482;7.408;2023-02-28T06:54:31;6.60;96.20
4356;DHT22;64374;51.482;7.408;2023-02-28T06:57:00;6.60;95.80
4356;DHT22;64374;51.482;7.408;2023-02-28T06:59:28;6.80;95.80
4356;DHT22;64374;51.482;7.408;2023-02-28T07:01:58;6.70;95.80
4356;DHT22;64374;51.482;7.408;2023-02-28T07:04:28;6.60;96.00
4356;DHT22;64374;51.482;7.408;2023-02-28T07:06:57;6.50;95.90
4356;DHT22;64374;51.482;7.408;2023-02-28T07:09:28;6.50;96.20
4356;DHT22;64374;51.482;7.408;2023-02-28T07:12:03;6.50;96.20
4356;DHT22;64374;51.482;7.408;2023-02-28T07:14:31;6.60;96.10
4356;DHT22;64374;51.482;7.408;2023-02-28T07:16:59;6.50;96.10
4356;DHT22;64374;51.482;7.408;2023-02-28T07:19:27;6.60;96.20
4356;DHT22;64374;51.482;7.408;2023-02-28T07:21:57;6.40;96.50
4356;DHT22;64374;51.482;7.408;2023-02-28T07:24:25;6.50;96.40
4356;DHT22;64374;51.482;7.408;2023-02-28T07:26:55;6.50;96.40
4356;DHT22;64374;51.482;7.408;2023-02-28T07:29:23;6.60;96.40
4356;DHT22;64374;51.482;7.408;2023-02-28T07:31:52;6.40;96.50
4356;DHT22;64374;51.482;7.408;2023-02-28T07:34:21;6.30;96.60
4356;DHT22;64374;51.482;7.408;2023-02-28T07:36:52;6.40;96.60
4356;DHT22;64374;51.482;7.408;2023-02-28T07:39:23;6.60;96.70
4356;DHT22;64374;51.482;7.408;2023-02-28T07:41:52;6.50;96.40
4356;DHT22;64374;51.482;7.408;2023-02-28T07:44:25;6.50;96.80
4356;DHT22;64374;51.482;7.408;2023-02-28T07:46:55;6.60;96.50
4356;DHT22;64374;51.482;7.408;2023-02-28T07:49:23;6.60;96.40
4356;DHT22;64374;51.482;7.408;2023-02-28T07:51:51;6.60;96.40
4356;DHT22;64374;51.482;7.408;2023-02-28T07:54:19;6.70;96.20
4356;DHT22;64374;51.482;7.408;2023-02-28T07:56:50;6.70;96.40
4356;DHT22;64374;51.482;7.408;2023-02-28T07:59:18;6.60;96.70
4356;DHT22;64374;51.482;7.408;2023-02-28T08:01:46;6.60;96.60
4356;DHT22;64374;51.482;7.408;2023-02-28T08:04:17;6.60;96.30
4356;DHT22;64374;51.482;7.408;2023-02-28T08:06:46;6.80;96.60
4356;DHT22;64374;51.482;7.408;2023-02-28T08:09:14;6.90;96.30
4356;DHT22;64374;51.482;7.408;2023-02-28T08:11:44;7.00;96.30
4356;DHT22;64374;51.482;7.408;2023-02-28T08:14:13;6.90;96.30
4356;DHT22;64374;51.482;7.408;2023-02-28T08:16:42;6.90;95.70
4356;DHT22;64374;51.482;7.408;2023-02-28T08:19:10;6.90;95.20
4356;DHT22;64374;51.482;7.408;2023-02-28T08:21:39;7.10;94.60
4356;DHT22;64374;51.482;7.408;2023-02-28T08:24:07;6.90;94.90
4356;DHT22;64374;51.482;7.408;2023-02-28T08:26:36;6.90;94.90
4356;DHT22;64374;51.482;7.408;2023-02-28T08:29:05;6.90;94.90
4356;DHT22;64374;51.482;7.408;2023-02-28T08:31:35;6.90;94.90
4356;DHT22;64374;51.482;7.408;2023-02-28T08:34:05;7.10;94.80
4356;DHT22;64374;51.482;7.408;2023-02-28T08:36:34;7.10;94.40
4356;DHT22;64374;51.482;7.408;2023-02-28T08:39:02;7.20;94.30
4356;DHT22;64374;51.482;7.408;2023-02-28T08:41:32;7.00;94.20
4356;DHT22;64374;51.482;7.408;2023-02-28T08:44:00;7.20;94.20
4356;DHT22;64374;51.482;7.408;2023-02-28T08:46:29;7.30;94.10
4356;DHT22;64374;51.482;7.408;2023-02-28T08:48:59;7.40;94.00
4356;DHT22;64374;51.482;7.408;2023-02-28T08:51:29;7.20;93.60
4356;DHT22;64374;51.482;7.408;2023-02-28T08:54:01;7.20;93.50
4356;DHT22;64374;51.482;7.408;2023-02-28T08:56:29;7.10;93.60
4356;DHT22;64374;51.482;7.408;2023-02-28T08:58:57;7.40;93.60
4356;DHT22;64374;51.482;7.408;2023-02-28T09:01:28;7.30;93.40
4356;DHT22;64374;51.482;7.408;2023-02-28T09:03:59;7.40;93.60
4356;DHT22;64374;51.482;7.408;2023-02-28T09:06:28;7.40;93.50
4356;DHT22;64374;51.482;7.408;2023-02-28T09:08:57;7.50;93.00
4356;DHT22;64374;51.482;7.408;2023-02-28T09:11:28;7.30;92.40
4356;DHT22;64374;51.482;7.408;2023-02-28T09:13:57;7.40;91.60
4356;DHT22;64374;51.482;7.408;2023-02-28T09:16:26;7.00;90.70
4356;DHT22;64374;51.482;7.408;2023-02-28T09:18:55;6.90;90.90
4356;DHT22;64374;51.482;7.408;2023-02-28T09:21:25;6.80;90.60
4356;DHT22;64374;51.482;7.408;2023-02-28T09:23:54;7.00;90.50
4356;DHT22;64374;51.482;7.408;2023-02-28T09:26:26;7.10;90.50
4356;DHT22;64374;51.482;7.408;2023-02-28T09:29:09;7.10;90.30
4356;DHT22;64374;51.482;7.408;2023-02-28T09:31:37;7.30;90.40
4356;DHT22;64374;51.482;7.408;2023-02-28T09:34:08;7.30;92.80
4356;DHT22;64374;51.482;7.408;2023-02-28T09:36:38;7.40;90.80
4356;DHT22;64374;51.482;7.408;2023-02-28T09:39:13;7.40;90.40
4356;DHT22;64374;51.482;7.408;2023-02-28T09:41:44;7.30;90.00
4356;DHT22;64374;51.482;7.408;2023-02-28T09:44:26;7.50;90.20
4356;DHT22;64374;51.482;7.408;2023-02-28T09:46:58;7.50;90.00
4356;DHT22;64374;51.482;7.408;2023-02-28T09:49:37;7.80;90.50
4356;DHT22;64374;51.482;7.408;2023-02-28T09:52:10;8.00;90.50
4356;DHT22;64374;51.482;7.408;2023-02-28T09:54:41;8.20;90.20
4356;DHT22;64374;51.482;7.408;2023-02-28T09:57:17;8.30;90.10
4356;DHT22;64374;51.482;7.408;2023-02-28T09:59:59;8.40;88.50
4356;DHT22;64374;51.482;7.408;2023-02-28T10:02:56;8.30;87.90
4356;DHT22;64374;51.482;7.408;2023-02-28T10:05:30;8.30;87.00
4356;DHT22;64374;51.482;7.408;2023-02-28T10:08:10;8.30;87.40
4356;DHT22;64374;51.482;7.408;2023-02-28T10:10:42;7.80;85.10
4356;DHT22;64374;51.482;7.408;2023-02-28T10:13:20;7.80;86.20
4356;DHT22;64374;51.482;7.408;2023-02-28T10:15:55;8.10;86.20
4356;DHT22;64374;51.482;7.408;2023-02-28T10:18:27;8.20;85.70
4356;DHT22;64374;51.482;7.408;2023-02-28T10:20:58;8.20;84.40
4356;DHT22;64374;51.482;7.408;2023-02-28T10:23:34;8.20;85.30
4356;DHT22;64374;51.482;7.408;2023-02-28T10:26:09;8.10;83.90
4356;DHT22;64374;51.482;7.408;2023-02-28T10:28:40;8.10;83.70
4356;DHT22;64374;51.482;7.408;2023-02-28T10:31:14;8.10;83.80
4356;DHT22;64374;51.482;7.408;2023-02-28T10:33:47;8.30;83.70
4356;DHT22;64374;51.482;7.408;2023-02-28T10:36:19;8.20;82.70
4356;DHT22;64374;51.482;7.408;2023-02-28T10:38:51;8.30;82.00
4356;DHT22;64374;51.482;7.408;2023-02-28T10:41:28;8.10;80.70
4356;DHT22;64374;51.482;7.408;2023-02-28T10:44:20;8.40;81.80
4356;DHT22;64374;51.482;7.408;2023-02-28T10:46:50;8.90;81.80
4356;DHT22;64374;51.482;7.408;2023-02-28T10:49:20;9.30;79.80
4356;DHT22;64374;51.482;7.408;2023-02-28T10:51:53;9.90;78.30
4356;DHT22;64374;51.482;7.408;2023-02-28T10:54:33;10.40;75.70
4356;DHT22;64374;51.482;7.408;2023-02-28T10:57:15;11.10;73.70
4356;DHT22;64374;51.482;7.408;2023-02-28T10:59:44;11.60;70.80
4356;DHT22;64374;51.482;7.408;2023-02-28T11:02:32;12.00;69.70
4356;DHT22;64374;51.482;7.408;2023-02-28T11:07:51;12.50;65.90
4356;DHT22;64374;51.482;7.408;2023-02-28T11:10:26;12.60;65.40
4356;DHT22;64374;51.482;7.408;2023-02-28T11:12:58;12.60;68.10
4356;DHT22;64374;51.482;7.408;2023-02-28T11:15:29;12.60;65.80
4356;DHT22;64374;51.482;7.408;2023-02-28T11:18:00;12.00;63.90
4356;DHT22;64374;51.482;7.408;2023-02-28T11:20:51;11.60;66.40
4356;DHT22;64374;51.482;7.408;2023-02-28T11:23:21;11.20;71.70
4356;DHT22;64374;51.482;7.408;2023-02-28T11:25:56;11.20;71.20
4356;DHT22;64374;51.482;7.408;2023-02-28T11:28:29;11.10;69.50
4356;DHT22;64374;51.482;7.408;2023-02-28T11:31:05;11.10;70.50
4356;DHT22;64374;51.482;7.408;2023-02-28T11:33:42;10.90;70.00
4356;DHT22;64374;51.482;7.408;2023-02-28T11:36:15;10.90;68.70
4356;DHT22;64374;51.482;7.408;2023-02-28T11:38:48;11.00;68.60
4356;DHT22;64374;51.482;7.408;2023-02-28T11:44:27;11.20;69.80
4356;DHT22;64374;51.482;7.408;2023-02-28T11:47:04;11.30;70.80
4356;DHT22;64374;51.482;7.408;2023-02-28T11:49:40;11.00;68.90
4356;DHT22;64374;51.482;7.408;2023-02-28T11:52:20;11.10;70.50
4356;DHT22;64374;51.482;7.408;2023-02-28T11:55:08;11.20;69.80
4356;DHT22;64374;51.482;7.408;2023-02-28T11:57:52;11.30;68.40
4356;DHT22;64374;51.482;7.408;2023-02-28T12:00:39;11.20;71.60
4356;DHT22;64374;51.482;7.408;2023-02-28T12:03:17;11.40;69.60
4356;DHT22;64374;51.482;7.408;2023-02-28T12:06:02;11.30;69.20
4356;DHT22;64374;51.482;7.408;2023-02-28T12:08:44;11.40;68.20
4356;DHT22;64374;51.482;7.408;2023-02-28T12:11:27;11.40;68.70
4356;DHT22;64374;51.482;7.408;2023-02-28T12:14:14;11.60;67.40
4356;DHT22;64374;51.482;7.408;2023-02-28T12:16:57;11.70;67.70
4356;DHT22;64374;51.482;7.408;2023-02-28T12:19:33;11.60;67.70
4356;DHT22;64374;51.482;7.408;2023-02-28T12:22:26;11.80;68.90
4356;DHT22;64374;51.482;7.408;2023-02-28T12:25:32;12.20;67.50
4356;DHT22;64374;51.482;7.408;2023-02-28T12:28:09;12.40;68.00
4356;DHT22;64374;51.482;7.408;2023-02-28T12:30:49;12.60;66.80
4356;DHT22;64374;51.482;7.408;2023-02-28T12:33:22;12.80;66.80
4356;DHT22;64374;51.482;7.408;2023-02-28T12:35:58;12.90;66.10
4356;DHT22;64374;51.482;7.408;2023-02-28T12:38:31;13.10;65.80
4356;DHT22;64374;51.482;7.408;2023-02-28T12:41:09;12.90;64.50
4356;DHT22;64374;51.482;7.408;2023-02-28T12:43:43;12.60;64.30
4356;DHT22;64374;51.482;7.408;2023-02-28T12:46:19;12.60;64.10
4356;DHT22;64374;51.482;7.408;2023-02-28T12:48:52;12.40;63.60
4356;DHT22;64374;51.482;7.408;2023-02-28T12:51:23;12.40;63.20
4356;DHT22;64374;51.482;7.408;2023-02-28T12:53:58;12.30;63.00
4356;DHT22;64374;51.482;7.408;2023-02-28T12:56:35;12.10;63.30
4356;DHT22;64374;51.482;7.408;2023-02-28T12:59:13;12.00;64.50
4356;DHT22;64374;51.482;7.408;2023-02-28T13:02:00;11.90;63.80
4356;DHT22;64374;51.482;7.408;2023-02-28T13:10:20;12.90;65.50
4356;DHT22;64374;51.482;7.408;2023-02-28T13:12:51;13.20;64.20
4356;DHT22;64374;51.482;7.408;2023-02-28T13:15:33;13.40;63.80
4356;DHT22;64374;51.482;7.408;2023-02-28T13:18:30;13.60;62.00
4356;DHT22;64374;51.482;7.408;2023-02-28T13:21:04;13.60;62.00
4356;DHT22;64374;51.482;7.408;2023-02-28T13:23:59;13.80;62.70
4356;DHT22;64374;51.482;7.408;2023-02-28T13:29:40;15.40;62.00
4356;DHT22;64374;51.482;7.408;2023-02-28T13:32:29;15.90;60.40
4356;DHT22;64374;51.482;7.408;2023-02-28T13:38:24;17.80;56.90
4356;DHT22;64374;51.482;7.408;2023-02-28T13:40:52;18.50;53.40
4356;DHT22;64374;51.482;7.408;2023-02-28T13:43:20;19.10;53.80
4356;DHT22;64374;51.482;7.408;2023-02-28T13:46:12;19.30;51.50
4356;DHT22;64374;51.482;7.408;2023-02-28T13:48:41;19.80;50.90
4356;DHT22;64374;51.482;7.408;2023-02-28T13:51:35;20.20;50.00
4356;DHT22;64374;51.482;7.408;2023-02-28T13:54:24;20.30;49.00
4356;DHT22;64374;51.482;7.408;2023-02-28T13:57:07;20.40;48.90
4356;DHT22;64374;51.482;7.408;2023-02-28T13:59:46;20.50;47.70
4356;DHT22;64374;51.482;7.408;2023-02-28T14:02:47;20.50;46.50
4356;DHT22;64374;51.482;7.408;2023-02-28T14:05:21;20.80;45.90
4356;DHT22;64374;51.482;7.408;2023-02-28T14:07:54;21.00;45.40
4356;DHT22;64374;51.482;7.408;2023-02-28T14:10:27;20.60;45.60
4356;DHT22;64374;51.482;7.408;2023-02-28T14:13:11;20.10;46.00
4356;DHT22;64374;51.482;7.408;2023-02-28T14:15:43;20.30;46.00
4356;DHT22;64374;51.482;7.408;2023-02-28T14:18:22;20.60;46.00
4356;DHT22;64374;51.482;7.408;2023-02-28T14:20:57;20.30;45.70
4356;DHT22;64374;51.482;7.408;2023-02-28T14:23:52;20.30;45.60
4356;DHT22;64374;51.482;7.408;2023-02-28T14:29:35;20.10;45.20
4356;DHT22;64374;51.482;7.408;2023-02-28T14:32:15;19.60;44.30
4356;DHT22;64374;51.482;7.408;2023-02-28T14:34:51;19.90;44.70
4356;DHT22;64374;51.482;7.408;2023-02-28T14:37:26;20.10;43.80
4356;DHT22;64374;51.482;7.408;2023-02-28T14:39:56;19.60;44.20
4356;DHT22;64374;51.482;7.408;2023-02-28T14:42:31;19.30;44.70
4356;DHT22;64374;51.482;7.408;2023-02-28T14:45:00;19.40;44.90
4356;DHT22;64374;51.482;7.408;2023-02-28T14:47:31;19.40;44.90
4356;DHT22;64374;51.482;7.408;2023-02-28T14:50:02;18.80;44.70
4356;DHT22;64374;51.482;7.408;2023-02-28T14:52:32;18.30;45.10
4356;DHT22;64374;51.482;7.408;2023-02-28T14:55:05;17.90;45.40
4356;DHT22;64374;51.482;7.408;2023-02-28T14:57:43;17.20;46.00
4356;DHT22;64374;51.482;7.408;2023-02-28T15:00:22;16.60;46.30
4356;DHT22;64374;51.482;7.408;2023-02-28T15:02:53;16.30;47.00
4356;DHT22;64374;51.482;7.408;2023-02-28T15:05:28;15.70;47.00
4356;DHT22;64374;51.482;7.408;2023-02-28T15:08:12;15.20;47.30
4356;DHT22;64374;51.482;7.408;2023-02-28T15:10:43;15.00;48.10
4356;DHT22;64374;51.482;7.408;2023-02-28T15:13:14;14.90;48.50
4356;DHT22;64374;51.482;7.408;2023-02-28T15:15:45;14.80;48.10
4356;DHT22;64374;51.482;7.408;2023-02-28T15:18:38;14.70;48.20
4356;DHT22;64374;51.482;7.408;2023-02-28T15:21:13;14.40;48.10
4356;DHT22;64374;51.482;7.408;2023-02-28T15:23:48;14.10;48.80
4356;DHT22;64374;51.482;7.408;2023-02-28T15:26:23;14.10;48.90
4356;DHT22;64374;51.482;7.408;2023-02-28T15:28:59;13.80;49.00
4356;DHT22;64374;51.482;7.408;2023-02-28T15:31:31;14.00;49.40
4356;DHT22;64374;51.482;7.408;2023-02-28T15:34:22;13.70;49.70
4356;DHT22;64374;51.482;7.408;2023-02-28T15:36:59;13.60;49.60
4356;DHT22;64374;51.482;7.408;2023-02-28T15:39:28;13.50;50.60
4356;DHT22;64374;51.482;7.408;2023-02-28T15:42:12;13.50;50.60
4356;DHT22;64374;51.482;7.408;2023-02-28T15:44:46;13.30;50.60
4356;DHT22;64374;51.482;7.408;2023-02-28T15:47:17;13.40;50.50
4356;DHT22;64374;51.482;7.408;2023-02-28T15:49:49;13.60;51.00
4356;DHT22;64374;51.482;7.408;2023-02-28T15:52:20;13.80;51.00
4356;DHT22;64374;51.482;7.408;2023-02-28T15:54:50;13.40;51.40
4356;DHT22;64374;51.482;7.408;2023-02-28T15:57:21;13.10;51.70
4356;DHT22;64374;51.482;7.408;2023-02-28T15:59:54;12.50;52.10
4356;DHT22;64374;51.482;7.408;2023-02-28T16:02:30;12.50;53.00
4356;DHT22;64374;51.482;7.408;2023-02-28T16:07:44;12.30;52.60
4356;DHT22;64374;51.482;7.408;2023-02-28T16:10:15;12.10;53.20
4356;DHT22;64374;51.482;7.408;2023-02-28T16:12:44;12.00;53.40
4356;DHT22;64374;51.482;7.408;2023-02-28T16:15:22;11.70;53.10
4356;DHT22;64374;51.482;7.408;2023-02-28T16:17:52;11.40;54.10
4356;DHT22;64374;51.482;7.408;2023-02-28T16:20:21;11.40;54.00
4356;DHT22;64374;51.482;7.408;2023-02-28T16:22:50;11.40;54.40
4356;DHT22;64374;51.482;7.408;2023-02-28T16:25:23;11.50;54.90
4356;DHT22;64374;51.482;7.408;2023-02-28T16:27:52;11.50;55.00
4356;DHT22;64374;51.482;7.408;2023-02-28T16:30:30;11.50;55.00
4356;DHT22;64374;51.482;7.408;2023-02-28T16:33:00;11.40;55.60
4356;DHT22;64374;51.482;7.408;2023-02-28T16:35:28;11.20;55.90
4356;DHT22;64374;51.482;7.408;2023-02-28T16:37:56;11.00;55.90
4356;DHT22;64374;51.482;7.408;2023-02-28T16:40:25;10.60;56.50
4356;DHT22;64374;51.482;7.408;2023-02-28T16:42:58;10.60;56.70
4356;DHT22;64374;51.482;7.408;2023-02-28T16:45:29;10.70;56.80
4356;DHT22;64374;51.482;7.408;2023-02-28T16:47:58;10.70;56.80
4356;DHT22;64374;51.482;7.408;2023-02-28T16:50:28;10.80;57.10
4356;DHT22;64374;51.482;7.408;2023-02-28T16:52:56;10.90;56.90
4356;DHT22;64374;51.482;7.408;2023-02-28T16:55:26;11.00;56.70
4356;DHT22;64374;51.482;7.408;2023-02-28T16:57:56;10.90;56.70
4356;DHT22;64374;51.482;7.408;2023-02-28T17:00:25;10.80;57.00
4356;DHT22;64374;51.482;7.408;2023-02-28T17:02:56;11.00;57.20